WMT3345 LRCL-LROP
Flight info
| Callsign | WMT3345 |
|---|---|
| Flight time | 1h 0m |
| Altitude | 27000 |
| Route | IRLOX DCT BIVBU DCT TOSVI |
| Aircraft | A321/M-SDE3FGHIRWY/LB1 |
Departure
| Time | 2026-04-25 13:05 |
|---|---|
| Airport | Avram Iancu Cluj International Airport (LRCL) |
Arrival
| Time | 2026-04-25 14:05 |
|---|---|
| Airport | Bucharest Henri Coandă International Airport (LROP) |
| Time | Latitude | Longitude | Altitude | Speed | Heading |
|---|---|---|---|---|---|
| 2026-04-25 12:32 | 46.78580 | 23.69404 | 1023 ft | 0 kts | 193° |
| 2026-04-25 12:54 | 46.78574 | 23.69397 | 1053 ft | 4 kts | 220° |
| 2026-04-25 12:54 | 46.78567 | 23.69362 | 1024 ft | 4 kts | 263° |
| 2026-04-25 12:54 | 46.78569 | 23.69324 | 1022 ft | 4 kts | 283° |
| 2026-04-25 12:54 | 46.78588 | 23.69316 | 1026 ft | 1 kts | 165° |
| 2026-04-25 12:55 | 46.78592 | 23.69314 | 1026 ft | 0 kts | 165° |
| 2026-04-25 12:57 | 46.78589 | 23.69315 | 1026 ft | 1 kts | 164° |
| 2026-04-25 12:57 | 46.78587 | 23.69320 | 1026 ft | 0 kts | 134° |
| 2026-04-25 12:58 | 46.78587 | 23.69321 | 1026 ft | 0 kts | 125° |
| 2026-04-25 12:58 | 46.78587 | 23.69324 | 1026 ft | 0 kts | 106° |
| 2026-04-25 12:58 | 46.78590 | 23.69328 | 1026 ft | 1 kts | 68° |
| 2026-04-25 12:58 | 46.78595 | 23.69329 | 1026 ft | 1 kts | 16° |
| 2026-04-25 12:59 | 46.78606 | 23.69322 | 1023 ft | 3 kts | 335° |
| 2026-04-25 12:59 | 46.78633 | 23.69296 | 1026 ft | 6 kts | 331° |
| 2026-04-25 12:59 | 46.78685 | 23.69268 | 1024 ft | 10 kts | 341° |
| 2026-04-25 12:59 | 46.78754 | 23.69235 | 1025 ft | 11 kts | 342° |
| 2026-04-25 13:00 | 46.78826 | 23.69200 | 1027 ft | 11 kts | 342° |
| 2026-04-25 13:00 | 46.78875 | 23.69175 | 1026 ft | 11 kts | 337° |
| 2026-04-25 13:00 | 46.78888 | 23.69033 | 1025 ft | 14 kts | 251° |
| 2026-04-25 13:00 | 46.78855 | 23.68889 | 1023 ft | 16 kts | 252° |
| 2026-04-25 13:01 | 46.78820 | 23.68736 | 1026 ft | 16 kts | 252° |
| 2026-04-25 13:01 | 46.78784 | 23.68576 | 1026 ft | 17 kts | 251° |
| 2026-04-25 13:01 | 46.78748 | 23.68411 | 1030 ft | 17 kts | 252° |
| 2026-04-25 13:01 | 46.78710 | 23.68245 | 1031 ft | 18 kts | 251° |
| 2026-04-25 13:02 | 46.78673 | 23.68078 | 1034 ft | 17 kts | 252° |
| 2026-04-25 13:02 | 46.78636 | 23.67914 | 1035 ft | 17 kts | 251° |
| 2026-04-25 13:02 | 46.78597 | 23.67742 | 1035 ft | 18 kts | 252° |
| 2026-04-25 13:02 | 46.78558 | 23.67570 | 1035 ft | 18 kts | 252° |
| 2026-04-25 13:03 | 46.78532 | 23.67418 | 1036 ft | 10 kts | 272° |
| 2026-04-25 13:03 | 46.78515 | 23.67390 | 1036 ft | 2 kts | 122° |
| 2026-04-25 13:03 | 46.78524 | 23.67420 | 1036 ft | 5 kts | 62° |
| 2026-04-25 13:03 | 46.78534 | 23.67458 | 1035 ft | 1 kts | 72° |
| 2026-04-25 13:04 | 46.78537 | 23.67474 | 1035 ft | 3 kts | 72° |
| 2026-04-25 13:04 | 46.78557 | 23.67565 | 1035 ft | 34 kts | 72° |
| 2026-04-25 13:04 | 46.78715 | 23.68263 | 1031 ft | 108 kts | 72° |
| 2026-04-25 13:04 | 46.79011 | 23.69592 | 1045 ft | 163 kts | 70° |
| 2026-04-25 13:05 | 46.79348 | 23.71098 | 1932 ft | 142 kts | 71° |
| 2026-04-25 13:05 | 46.79655 | 23.72475 | 2532 ft | 154 kts | 70° |
| 2026-04-25 13:05 | 46.80019 | 23.74084 | 2828 ft | 175 kts | 70° |
| 2026-04-25 13:05 | 46.80415 | 23.75847 | 2989 ft | 191 kts | 71° |
| 2026-04-25 13:06 | 46.80843 | 23.77771 | 3099 ft | 211 kts | 71° |
| 2026-04-25 13:06 | 46.81317 | 23.79952 | 3111 ft | 235 kts | 72° |
| 2026-04-25 13:06 | 46.81824 | 23.82330 | 3205 ft | 260 kts | 73° |
| 2026-04-25 13:06 | 46.82384 | 23.84916 | 3723 ft | 270 kts | 72° |
| 2026-04-25 13:07 | 46.82961 | 23.87549 | 4430 ft | 274 kts | 72° |
| 2026-04-25 13:07 | 46.83553 | 23.90224 | 5101 ft | 279 kts | 72° |
| 2026-04-25 13:07 | 46.84168 | 23.92933 | 5805 ft | 282 kts | 69° |
| 2026-04-25 13:07 | 46.85169 | 23.95410 | 6405 ft | 287 kts | 46° |
| 2026-04-25 13:08 | 46.86727 | 23.97184 | 7076 ft | 284 kts | 26° |
| 2026-04-25 13:08 | 46.88565 | 23.98157 | 7775 ft | 281 kts | 6° |
| 2026-04-25 13:08 | 46.90493 | 23.98262 | 8495 ft | 277 kts | 349° |
| 2026-04-25 13:08 | 46.92330 | 23.97499 | 9245 ft | 274 kts | 332° |
| 2026-04-25 13:09 | 46.93885 | 23.95932 | 9958 ft | 273 kts | 313° |
| 2026-04-25 13:09 | 46.94941 | 23.93631 | 10558 ft | 276 kts | 293° |
| 2026-04-25 13:09 | 46.95356 | 23.90788 | 10713 ft | 300 kts | 271° |
| 2026-04-25 13:09 | 46.94884 | 23.87704 | 10858 ft | 327 kts | 247° |
| 2026-04-25 13:10 | 46.93457 | 23.85042 | 10971 ft | 354 kts | 221° |
| 2026-04-25 13:10 | 46.91202 | 23.83349 | 11208 ft | 375 kts | 203° |
| 2026-04-25 13:10 | 46.88705 | 23.82145 | 11700 ft | 382 kts | 200° |
| 2026-04-25 13:10 | 46.86130 | 23.81072 | 12288 ft | 386 kts | 198° |
| 2026-04-25 13:11 | 46.83501 | 23.80161 | 12847 ft | 393 kts | 190° |
| 2026-04-25 13:11 | 46.80743 | 23.80154 | 13408 ft | 402 kts | 175° |
| 2026-04-25 13:11 | 46.78019 | 23.81171 | 13961 ft | 409 kts | 160° |
| 2026-04-25 13:11 | 46.75502 | 23.83174 | 14467 ft | 415 kts | 147° |
| 2026-04-25 13:12 | 46.73092 | 23.85521 | 15022 ft | 417 kts | 147° |
| 2026-04-25 13:12 | 46.70675 | 23.87887 | 15578 ft | 419 kts | 147° |
| 2026-04-25 13:12 | 46.68250 | 23.90264 | 16150 ft | 422 kts | 147° |
| 2026-04-25 13:12 | 46.66635 | 23.91849 | 16536 ft | 423 kts | 147° |
| 2026-04-25 13:13 | 46.63356 | 23.95026 | 17322 ft | 424 kts | 151° |
| 2026-04-25 13:13 | 46.60722 | 23.96931 | 17940 ft | 422 kts | 161° |
| 2026-04-25 13:13 | 46.57922 | 23.98180 | 18509 ft | 419 kts | 171° |
| 2026-04-25 13:13 | 46.55059 | 23.98860 | 19047 ft | 418 kts | 175° |
| 2026-04-25 13:14 | 46.52176 | 23.99475 | 19595 ft | 418 kts | 175° |
| 2026-04-25 13:14 | 46.49303 | 24.00097 | 20144 ft | 418 kts | 175° |
| 2026-04-25 13:14 | 46.46424 | 24.00720 | 20717 ft | 418 kts | 175° |
| 2026-04-25 13:14 | 46.43556 | 24.01343 | 21302 ft | 417 kts | 175° |
| 2026-04-25 13:15 | 46.40684 | 24.01967 | 21901 ft | 416 kts | 175° |
| 2026-04-25 13:15 | 46.37825 | 24.02586 | 22498 ft | 415 kts | 175° |
| 2026-04-25 13:15 | 46.35006 | 24.03202 | 23100 ft | 414 kts | 175° |
| 2026-04-25 13:15 | 46.32160 | 24.03823 | 23655 ft | 413 kts | 175° |
| 2026-04-25 13:16 | 46.29327 | 24.04437 | 24140 ft | 412 kts | 175° |
| 2026-04-25 13:16 | 46.26502 | 24.05044 | 24630 ft | 410 kts | 175° |
| 2026-04-25 13:16 | 46.23680 | 24.05643 | 25107 ft | 409 kts | 175° |
| 2026-04-25 13:16 | 46.20875 | 24.06240 | 25589 ft | 407 kts | 175° |
| 2026-04-25 13:17 | 46.18075 | 24.06841 | 26060 ft | 406 kts | 175° |
| 2026-04-25 13:17 | 46.15281 | 24.07438 | 26538 ft | 404 kts | 175° |
| 2026-04-25 13:17 | 46.12507 | 24.08030 | 26958 ft | 405 kts | 175° |
| 2026-04-25 13:17 | 46.09688 | 24.08633 | 27082 ft | 414 kts | 175° |
| 2026-04-25 13:18 | 46.06813 | 24.09244 | 27219 ft | 422 kts | 175° |
| 2026-04-25 13:18 | 46.03879 | 24.09866 | 27339 ft | 430 kts | 175° |
| 2026-04-25 13:18 | 46.00891 | 24.10503 | 27469 ft | 438 kts | 175° |
| 2026-04-25 13:18 | 45.97856 | 24.11150 | 27614 ft | 445 kts | 175° |
| 2026-04-25 13:19 | 45.94772 | 24.11806 | 27741 ft | 452 kts | 174° |
| 2026-04-25 13:19 | 45.91638 | 24.12468 | 27916 ft | 458 kts | 174° |
| 2026-04-25 13:19 | 45.88455 | 24.13140 | 27976 ft | 466 kts | 174° |
| 2026-04-25 13:19 | 45.86319 | 24.13590 | 27978 ft | 473 kts | 174° |
| 2026-04-25 13:20 | 45.81915 | 24.14522 | 27954 ft | 482 kts | 174° |
| 2026-04-25 13:20 | 45.78593 | 24.15230 | 27976 ft | 484 kts | 174° |
| 2026-04-25 13:20 | 45.75257 | 24.15941 | 27972 ft | 484 kts | 174° |
| 2026-04-25 13:20 | 45.71972 | 24.16636 | 27974 ft | 484 kts | 174° |
| 2026-04-25 13:21 | 45.68598 | 24.17343 | 27988 ft | 484 kts | 174° |
| 2026-04-25 13:21 | 45.65302 | 24.18025 | 27976 ft | 485 kts | 174° |
| 2026-04-25 13:21 | 45.61963 | 24.18715 | 27979 ft | 485 kts | 174° |
| 2026-04-25 13:21 | 45.58619 | 24.19409 | 27968 ft | 485 kts | 174° |
| 2026-04-25 13:22 | 45.55282 | 24.20104 | 27973 ft | 484 kts | 174° |
| 2026-04-25 13:22 | 45.51952 | 24.20797 | 27974 ft | 484 kts | 174° |
| 2026-04-25 13:22 | 45.48619 | 24.21497 | 27976 ft | 484 kts | 174° |
| 2026-04-25 13:23 | 45.41957 | 24.22885 | 27979 ft | 484 kts | 174° |
| 2026-04-25 13:23 | 45.38629 | 24.23573 | 27978 ft | 484 kts | 174° |
| 2026-04-25 13:23 | 45.35300 | 24.24266 | 27972 ft | 484 kts | 174° |
| 2026-04-25 13:23 | 45.31969 | 24.24967 | 27976 ft | 484 kts | 174° |
| 2026-04-25 13:24 | 45.28635 | 24.25664 | 27983 ft | 483 kts | 174° |
| 2026-04-25 13:24 | 45.25311 | 24.26348 | 27981 ft | 484 kts | 174° |
| 2026-04-25 13:24 | 45.21975 | 24.27032 | 27977 ft | 484 kts | 174° |
| 2026-04-25 13:24 | 45.18634 | 24.27716 | 27721 ft | 485 kts | 174° |
| 2026-04-25 13:25 | 45.15297 | 24.28401 | 27448 ft | 485 kts | 174° |
| 2026-04-25 13:25 | 45.11966 | 24.29085 | 27191 ft | 484 kts | 173° |
| 2026-04-25 13:25 | 45.08636 | 24.29767 | 26938 ft | 483 kts | 174° |
| 2026-04-25 13:25 | 45.05315 | 24.30449 | 26425 ft | 480 kts | 173° |
| 2026-04-25 13:26 | 45.02015 | 24.31158 | 25719 ft | 479 kts | 170° |
| 2026-04-25 13:26 | 44.98822 | 24.32487 | 25006 ft | 479 kts | 158° |
| 2026-04-25 13:26 | 44.95919 | 24.34653 | 24304 ft | 479 kts | 146° |
| 2026-04-25 13:26 | 44.93355 | 24.37645 | 23612 ft | 478 kts | 134° |
| 2026-04-25 13:27 | 44.91288 | 24.41285 | 22882 ft | 474 kts | 122° |
| 2026-04-25 13:27 | 44.89773 | 24.45365 | 22252 ft | 466 kts | 110° |
| 2026-04-25 13:27 | 44.88790 | 24.49687 | 21612 ft | 460 kts | 104° |
| 2026-04-25 13:27 | 44.87933 | 24.53989 | 20913 ft | 452 kts | 104° |
| 2026-04-25 13:28 | 44.87088 | 24.58241 | 20236 ft | 444 kts | 104° |
| 2026-04-25 13:28 | 44.86807 | 24.59653 | 20016 ft | 440 kts | 104° |
| 2026-04-25 13:28 | 44.85456 | 24.66418 | 18905 ft | 424 kts | 104° |
| 2026-04-25 13:28 | 44.84663 | 24.70383 | 18250 ft | 417 kts | 105° |
| 2026-04-25 13:29 | 44.83882 | 24.74278 | 17514 ft | 410 kts | 105° |
| 2026-04-25 13:29 | 44.83114 | 24.78105 | 16790 ft | 403 kts | 105° |
| 2026-04-25 13:29 | 44.82357 | 24.81871 | 16080 ft | 396 kts | 105° |
| 2026-04-25 13:30 | 44.80877 | 24.89208 | 14719 ft | 383 kts | 105° |
| 2026-04-25 13:30 | 44.80148 | 24.92787 | 14053 ft | 377 kts | 105° |
| 2026-04-25 13:30 | 44.79420 | 24.96312 | 13346 ft | 371 kts | 107° |
| 2026-04-25 13:31 | 44.76794 | 25.02318 | 12218 ft | 353 kts | 127° |
| 2026-04-25 13:31 | 44.75312 | 25.05021 | 11712 ft | 344 kts | 128° |
| 2026-04-25 13:31 | 44.73866 | 25.07650 | 11232 ft | 336 kts | 128° |
| 2026-04-25 13:31 | 44.72453 | 25.10212 | 10832 ft | 326 kts | 128° |
| 2026-04-25 13:32 | 44.71082 | 25.12690 | 10451 ft | 317 kts | 128° |
| 2026-04-25 13:32 | 44.69748 | 25.15104 | 10070 ft | 308 kts | 128° |
| 2026-04-25 13:32 | 44.68448 | 25.17455 | 9666 ft | 301 kts | 128° |
| 2026-04-25 13:32 | 44.67194 | 25.19719 | 9251 ft | 294 kts | 128° |
| 2026-04-25 13:33 | 44.65949 | 25.21967 | 8833 ft | 288 kts | 128° |
| 2026-04-25 13:33 | 44.64731 | 25.24166 | 8422 ft | 283 kts | 128° |
| 2026-04-25 13:33 | 44.63533 | 25.26328 | 8025 ft | 278 kts | 128° |
| 2026-04-25 13:33 | 44.62735 | 25.27765 | 7742 ft | 274 kts | 127° |
| 2026-04-25 13:34 | 44.61209 | 25.30513 | 7253 ft | 264 kts | 127° |
| 2026-04-25 13:34 | 44.60093 | 25.32522 | 6858 ft | 258 kts | 128° |
| 2026-04-25 13:34 | 44.59001 | 25.34483 | 6469 ft | 252 kts | 128° |
| 2026-04-25 13:34 | 44.57927 | 25.36405 | 6054 ft | 249 kts | 128° |
| 2026-04-25 13:35 | 44.56863 | 25.38305 | 5654 ft | 246 kts | 128° |
| 2026-04-25 13:35 | 44.55806 | 25.40191 | 5395 ft | 246 kts | 128° |
| 2026-04-25 13:35 | 44.54753 | 25.42070 | 5192 ft | 245 kts | 128° |
| 2026-04-25 13:35 | 44.53704 | 25.43950 | 4987 ft | 244 kts | 128° |
| 2026-04-25 13:36 | 44.52744 | 25.45905 | 4788 ft | 243 kts | 117° |
| 2026-04-25 13:36 | 44.52159 | 25.48110 | 4587 ft | 240 kts | 102° |
| 2026-04-25 13:36 | 44.51989 | 25.50389 | 4373 ft | 232 kts | 87° |
| 2026-04-25 13:36 | 44.52147 | 25.52593 | 4192 ft | 230 kts | 82° |
| 2026-04-25 13:37 | 44.52331 | 25.54812 | 4084 ft | 229 kts | 82° |
| 2026-04-25 13:37 | 44.52502 | 25.57040 | 3913 ft | 229 kts | 83° |
| 2026-04-25 13:37 | 44.52667 | 25.59256 | 3761 ft | 229 kts | 83° |
| 2026-04-25 13:37 | 44.52843 | 25.61466 | 3597 ft | 228 kts | 82° |
| 2026-04-25 13:38 | 44.53021 | 25.63679 | 3463 ft | 228 kts | 83° |
| 2026-04-25 13:38 | 44.53191 | 25.65805 | 3294 ft | 209 kts | 83° |
| 2026-04-25 13:38 | 44.53348 | 25.67770 | 3144 ft | 199 kts | 83° |
| 2026-04-25 13:38 | 44.53499 | 25.69660 | 3010 ft | 193 kts | 83° |
| 2026-04-25 13:39 | 44.53648 | 25.71525 | 2861 ft | 192 kts | 83° |
| 2026-04-25 13:39 | 44.53796 | 25.73390 | 2709 ft | 193 kts | 83° |
| 2026-04-25 13:39 | 44.53943 | 25.75248 | 2587 ft | 192 kts | 83° |
| 2026-04-25 13:39 | 44.54090 | 25.77103 | 2511 ft | 191 kts | 83° |
| 2026-04-25 13:40 | 44.54236 | 25.78957 | 2507 ft | 192 kts | 83° |
| 2026-04-25 13:40 | 44.54383 | 25.80818 | 2503 ft | 192 kts | 83° |
| 2026-04-25 13:40 | 44.54526 | 25.82638 | 2515 ft | 187 kts | 83° |
| 2026-04-25 13:40 | 44.54663 | 25.84389 | 2504 ft | 177 kts | 83° |
| 2026-04-25 13:41 | 44.54796 | 25.86075 | 2504 ft | 172 kts | 82° |
| 2026-04-25 13:41 | 44.54925 | 25.87725 | 2499 ft | 165 kts | 82° |
| 2026-04-25 13:41 | 44.55047 | 25.89296 | 2494 ft | 160 kts | 83° |
| 2026-04-25 13:41 | 44.55168 | 25.90842 | 2410 ft | 158 kts | 83° |
| 2026-04-25 13:42 | 44.55287 | 25.92382 | 2253 ft | 157 kts | 83° |
| 2026-04-25 13:42 | 44.55406 | 25.93904 | 2079 ft | 157 kts | 83° |
| 2026-04-25 13:42 | 44.55524 | 25.95429 | 1888 ft | 157 kts | 83° |
| 2026-04-25 13:42 | 44.55631 | 25.96954 | 1690 ft | 157 kts | 85° |
| 2026-04-25 13:43 | 44.55719 | 25.98475 | 1481 ft | 156 kts | 85° |
| 2026-04-25 13:43 | 44.55820 | 25.99976 | 1345 ft | 154 kts | 84° |
| 2026-04-25 13:43 | 44.55942 | 26.01476 | 1165 ft | 154 kts | 81° |
| 2026-04-25 13:43 | 44.56107 | 26.02965 | 1031 ft | 154 kts | 79° |
| 2026-04-25 13:44 | 44.56232 | 26.04465 | 854 ft | 155 kts | 85° |
| 2026-04-25 13:44 | 44.56326 | 26.05967 | 692 ft | 154 kts | 81° |
| 2026-04-25 13:44 | 44.56446 | 26.07450 | 473 ft | 152 kts | 82° |
| 2026-04-25 13:44 | 44.56558 | 26.08922 | 338 ft | 151 kts | 84° |
| 2026-04-25 13:45 | 44.56663 | 26.10326 | 538 ft | 150 kts | 84° |
| 2026-04-25 13:45 | 44.56800 | 26.11819 | 1035 ft | 157 kts | 83° |
| 2026-04-25 13:45 | 44.56961 | 26.13373 | 1416 ft | 171 kts | 83° |
| 2026-04-25 13:45 | 44.57059 | 26.15105 | 1879 ft | 179 kts | 86° |
| 2026-04-25 13:46 | 44.57133 | 26.16794 | 2711 ft | 175 kts | 86° |
| 2026-04-25 13:46 | 44.57208 | 26.18565 | 2950 ft | 195 kts | 86° |
| 2026-04-25 13:46 | 44.57293 | 26.20591 | 3014 ft | 219 kts | 86° |
| 2026-04-25 13:46 | 44.57384 | 26.22769 | 3013 ft | 226 kts | 86° |
| 2026-04-25 13:47 | 44.57476 | 26.24998 | 2982 ft | 232 kts | 86° |
| 2026-04-25 13:47 | 44.57510 | 26.27257 | 2986 ft | 233 kts | 98° |
| 2026-04-25 13:47 | 44.56872 | 26.29310 | 2996 ft | 232 kts | 131° |
| 2026-04-25 13:47 | 44.55640 | 26.30771 | 3005 ft | 232 kts | 145° |
| 2026-04-25 13:48 | 44.54308 | 26.32050 | 2998 ft | 232 kts | 146° |
| 2026-04-25 13:48 | 44.52900 | 26.33138 | 2989 ft | 232 kts | 165° |
| 2026-04-25 13:48 | 44.51304 | 26.33275 | 3001 ft | 231 kts | 184° |
| 2026-04-25 13:48 | 44.49705 | 26.33077 | 2997 ft | 231 kts | 187° |
| 2026-04-25 13:49 | 44.48202 | 26.32375 | 2985 ft | 230 kts | 216° |
| 2026-04-25 13:49 | 44.47123 | 26.30732 | 3002 ft | 230 kts | 235° |
| 2026-04-25 13:49 | 44.46233 | 26.28878 | 2992 ft | 230 kts | 237° |
| 2026-04-25 13:49 | 44.45355 | 26.27002 | 3133 ft | 233 kts | 238° |
| 2026-04-25 13:50 | 44.44451 | 26.25125 | 3847 ft | 233 kts | 232° |
| 2026-04-25 13:50 | 44.43174 | 26.23713 | 4455 ft | 238 kts | 210° |
| 2026-04-25 13:50 | 44.41690 | 26.22652 | 4900 ft | 242 kts | 207° |
| 2026-04-25 13:50 | 44.40177 | 26.21638 | 4973 ft | 241 kts | 206° |
| 2026-04-25 13:51 | 44.38688 | 26.20579 | 4977 ft | 239 kts | 213° |
| 2026-04-25 13:51 | 44.37255 | 26.19457 | 4984 ft | 240 kts | 206° |
| 2026-04-25 13:51 | 44.35728 | 26.18498 | 4986 ft | 240 kts | 205° |
| 2026-04-25 13:51 | 44.34221 | 26.17507 | 4981 ft | 240 kts | 212° |
| 2026-04-25 13:52 | 44.32826 | 26.16232 | 4987 ft | 239 kts | 216° |
| 2026-04-25 13:52 | 44.31520 | 26.14804 | 4979 ft | 238 kts | 231° |
| 2026-04-25 13:52 | 44.30737 | 26.12804 | 4993 ft | 236 kts | 252° |
| 2026-04-25 13:52 | 44.30311 | 26.10620 | 4754 ft | 232 kts | 262° |
| 2026-04-25 13:53 | 44.30153 | 26.08393 | 4338 ft | 231 kts | 268° |
| 2026-04-25 13:53 | 44.30075 | 26.06160 | 3997 ft | 229 kts | 269° |
| 2026-04-25 13:53 | 44.30275 | 26.03990 | 3644 ft | 226 kts | 290° |
| 2026-04-25 13:53 | 44.30804 | 26.01936 | 3276 ft | 225 kts | 284° |
| 2026-04-25 13:54 | 44.31167 | 25.99810 | 2891 ft | 224 kts | 283° |
| 2026-04-25 13:54 | 44.31522 | 25.97705 | 2514 ft | 222 kts | 284° |
| 2026-04-25 13:54 | 44.31864 | 25.95669 | 2481 ft | 207 kts | 283° |
| 2026-04-25 13:54 | 44.32234 | 25.93809 | 2497 ft | 192 kts | 294° |
| 2026-04-25 13:55 | 44.32711 | 25.92792 | 2509 ft | 187 kts | 313° |
| 2026-04-25 13:55 | 44.33791 | 25.91821 | 2501 ft | 186 kts | 340° |
| 2026-04-25 13:55 | 44.35011 | 25.91280 | 2493 ft | 181 kts | 339° |
| 2026-04-25 13:55 | 44.36075 | 25.90438 | 2483 ft | 176 kts | 316° |
| 2026-04-25 13:56 | 44.36765 | 25.89031 | 2482 ft | 175 kts | 298° |
| 2026-04-25 13:56 | 44.37326 | 25.87522 | 2482 ft | 174 kts | 297° |
| 2026-04-25 13:56 | 44.37864 | 25.86020 | 2492 ft | 168 kts | 296° |
| 2026-04-25 13:56 | 44.38408 | 25.84601 | 2487 ft | 165 kts | 306° |
| 2026-04-25 13:57 | 44.39309 | 25.83655 | 2482 ft | 164 kts | 339° |
| 2026-04-25 13:57 | 44.40054 | 25.83502 | 2496 ft | 165 kts | 357° |
| 2026-04-25 13:57 | 44.41589 | 25.83422 | 2496 ft | 164 kts | 355° |
| 2026-04-25 13:57 | 44.42733 | 25.83362 | 2488 ft | 164 kts | 356° |
| 2026-04-25 13:58 | 44.43880 | 25.83301 | 2489 ft | 165 kts | 357° |
| 2026-04-25 13:58 | 44.45027 | 25.83240 | 2486 ft | 165 kts | 357° |
| 2026-04-25 13:58 | 44.46164 | 25.83181 | 2486 ft | 166 kts | 357° |
| 2026-04-25 13:58 | 44.47315 | 25.83119 | 2474 ft | 166 kts | 356° |
| 2026-04-25 13:59 | 44.48463 | 25.83056 | 2399 ft | 165 kts | 356° |
| 2026-04-25 13:59 | 44.49607 | 25.82993 | 2393 ft | 164 kts | 355° |
| 2026-04-25 13:59 | 44.50754 | 25.82931 | 2394 ft | 165 kts | 356° |
| 2026-04-25 13:59 | 44.51899 | 25.82871 | 2405 ft | 164 kts | 356° |
| 2026-04-25 14:00 | 44.53043 | 25.82813 | 2408 ft | 165 kts | 357° |
| 2026-04-25 14:00 | 44.54124 | 25.83266 | 2395 ft | 168 kts | 37° |
| 2026-04-25 14:00 | 44.54689 | 25.84669 | 2410 ft | 169 kts | 82° |
| 2026-04-25 14:00 | 44.54776 | 25.86260 | 2416 ft | 160 kts | 82° |
| 2026-04-25 14:01 | 44.54915 | 25.87800 | 2412 ft | 157 kts | 82° |
| 2026-04-25 14:01 | 44.55043 | 25.89318 | 2400 ft | 156 kts | 83° |
| 2026-04-25 14:01 | 44.55164 | 25.90831 | 2373 ft | 157 kts | 83° |
| 2026-04-25 14:01 | 44.55285 | 25.92362 | 2241 ft | 158 kts | 82° |
| 2026-04-25 14:02 | 44.55404 | 25.93888 | 2079 ft | 157 kts | 83° |
| 2026-04-25 14:02 | 44.55522 | 25.95406 | 1897 ft | 156 kts | 84° |
| 2026-04-25 14:02 | 44.55638 | 25.96895 | 1722 ft | 155 kts | 84° |
| 2026-04-25 14:02 | 44.55718 | 25.97912 | 1602 ft | 156 kts | 84° |
| 2026-04-25 14:03 | 44.55877 | 25.99906 | 1309 ft | 155 kts | 85° |
| 2026-04-25 14:03 | 44.55993 | 26.01408 | 1144 ft | 154 kts | 87° |
| 2026-04-25 14:03 | 44.56103 | 26.02912 | 995 ft | 155 kts | 85° |
| 2026-04-25 14:03 | 44.56218 | 26.04409 | 809 ft | 154 kts | 84° |
| 2026-04-25 14:04 | 44.56324 | 26.05906 | 642 ft | 154 kts | 84° |
| 2026-04-25 14:04 | 44.56437 | 26.07394 | 449 ft | 153 kts | 82° |
| 2026-04-25 14:04 | 44.56552 | 26.08858 | 324 ft | 144 kts | 84° |
| 2026-04-25 14:04 | 44.56641 | 26.10042 | 324 ft | 98 kts | 83° |
| 2026-04-25 14:05 | 44.56694 | 26.10690 | 322 ft | 16 kts | 85° |
| 2026-04-25 14:05 | 44.56753 | 26.10766 | 322 ft | 13 kts | 355° |
| 2026-04-25 14:05 | 44.56847 | 26.10750 | 322 ft | 14 kts | 353° |
| 2026-04-25 14:05 | 44.56946 | 26.10734 | 322 ft | 15 kts | 353° |
| 2026-04-25 14:06 | 44.57028 | 26.10651 | 321 ft | 16 kts | 302° |
| 2026-04-25 14:06 | 44.57065 | 26.10508 | 322 ft | 16 kts | 270° |
| 2026-04-25 14:06 | 44.57058 | 26.10387 | 322 ft | 10 kts | 264° |
| 2026-04-25 14:06 | 44.57049 | 26.10281 | 320 ft | 12 kts | 264° |
| 2026-04-25 14:07 | 44.57040 | 26.10161 | 322 ft | 13 kts | 264° |
| 2026-04-25 14:07 | 44.57031 | 26.10030 | 322 ft | 14 kts | 263° |
| 2026-04-25 14:07 | 44.57020 | 26.09889 | 322 ft | 15 kts | 264° |
| 2026-04-25 14:07 | 44.57008 | 26.09737 | 322 ft | 16 kts | 264° |
| 2026-04-25 14:08 | 44.56995 | 26.09575 | 322 ft | 17 kts | 264° |
| 2026-04-25 14:08 | 44.56982 | 26.09404 | 322 ft | 18 kts | 264° |
| 2026-04-25 14:08 | 44.56968 | 26.09224 | 322 ft | 19 kts | 264° |
| 2026-04-25 14:08 | 44.56954 | 26.09034 | 322 ft | 20 kts | 263° |
| 2026-04-25 14:09 | 44.56940 | 26.08862 | 322 ft | 12 kts | 264° |
| 2026-04-25 14:09 | 44.56931 | 26.08741 | 322 ft | 13 kts | 264° |
| 2026-04-25 14:09 | 44.56921 | 26.08609 | 322 ft | 14 kts | 263° |
| 2026-04-25 14:09 | 44.56901 | 26.08520 | 321 ft | 15 kts | 255° |
| 2026-04-25 14:10 | 44.56946 | 26.08346 | 323 ft | 15 kts | 283° |
| 2026-04-25 14:10 | 44.56941 | 26.08193 | 323 ft | 16 kts | 264° |
| 2026-04-25 14:10 | 44.56931 | 26.08069 | 323 ft | 8 kts | 264° |
| 2026-04-25 14:10 | 44.56927 | 26.08008 | 323 ft | 2 kts | 264° |
| 2026-04-25 14:11 | 44.56931 | 26.07984 | 335 ft | 3 kts | 299° |
| 2026-04-25 14:11 | 44.56951 | 26.07973 | 313 ft | 4 kts | 347° |
| 2026-04-25 14:11 | 44.56983 | 26.07967 | 322 ft | 5 kts | 354° |
| 2026-04-25 14:11 | 44.56993 | 26.07966 | 322 ft | 1 kts | 354° |
| 2026-04-25 14:12 | 44.57002 | 26.07965 | 323 ft | 1 kts | 354° |
| 2026-04-25 14:12 | 44.57008 | 26.07964 | 323 ft | 1 kts | 354° |
| 2026-04-25 14:12 | 44.57010 | 26.07963 | 323 ft | 0 kts | 354° |